createdAt,value
2023-02-01T00:00:58.759Z,3.70
2023-02-01T00:03:25.205Z,3.93
2023-02-01T00:05:58.120Z,3.13
2023-02-01T00:08:24.581Z,3.70
2023-02-01T00:10:58.739Z,3.83
2023-02-01T00:13:25.074Z,3.90
2023-02-01T00:15:51.483Z,3.30
2023-02-01T00:18:18.506Z,3.83
2023-02-01T00:20:46.348Z,3.57
2023-02-01T00:23:12.765Z,3.70
2023-02-01T00:25:40.065Z,3.87
2023-02-01T00:28:06.411Z,3.73
2023-02-01T00:30:32.865Z,3.80
2023-02-01T00:32:59.304Z,3.50
2023-02-01T00:35:26.324Z,3.37
2023-02-01T00:37:52.679Z,3.10
2023-02-01T00:40:19.362Z,3.33
2023-02-01T00:42:45.938Z,3.37
2023-02-01T00:45:12.305Z,3.63
2023-02-01T00:47:38.722Z,3.50
2023-02-01T00:50:05.637Z,3.93
2023-02-01T00:52:33.180Z,3.90
2023-02-01T00:54:59.633Z,3.97
2023-02-01T00:57:26.127Z,3.70
2023-02-01T00:59:52.501Z,4.27
2023-02-01T01:02:18.909Z,3.90
2023-02-01T01:04:45.333Z,3.93
2023-02-01T01:07:11.683Z,4.10
2023-02-01T01:09:38.874Z,4.27
2023-02-01T01:12:05.283Z,4.53
2023-02-01T01:14:32.804Z,4.33
2023-02-01T01:16:59.164Z,4.60
2023-02-01T01:19:25.555Z,4.43
2023-02-01T01:21:51.926Z,4.07
2023-02-01T01:24:18.288Z,4.50
2023-02-01T01:26:45.395Z,5.30
2023-02-01T01:29:11.815Z,4.27
2023-02-01T01:31:38.226Z,4.73
2023-02-01T01:34:05.140Z,5.33
2023-02-01T01:36:31.597Z,5.00
2023-02-01T01:38:58.078Z,5.33
2023-02-01T01:41:29.026Z,5.70
2023-02-01T01:43:59.036Z,6.10
2023-02-01T01:46:29.254Z,6.40
2023-02-01T01:49:02.528Z,6.37
2023-02-01T01:51:32.461Z,5.53
2023-02-01T01:54:03.521Z,5.40
2023-02-01T01:56:32.464Z,6.17
2023-02-01T01:59:00.237Z,6.00
2023-02-01T02:01:27.184Z,6.00
2023-02-01T02:03:54.867Z,6.80
2023-02-01T02:06:31.041Z,6.00
2023-02-01T02:08:57.442Z,5.73
2023-02-01T02:11:23.820Z,6.87
2023-02-01T02:13:53.087Z,6.17
2023-02-01T02:17:04.214Z,5.17
2023-02-01T02:20:07.186Z,5.33
2023-02-01T02:22:51.387Z,5.57
2023-02-01T02:25:43.811Z,4.67
2023-02-01T02:28:25.380Z,5.50
2023-02-01T02:31:09.034Z,5.60
2023-02-01T02:33:55.955Z,5.63
2023-02-01T02:36:34.409Z,5.83
2023-02-01T02:39:08.749Z,6.23
2023-02-01T02:42:03.957Z,5.87
2023-02-01T02:45:01.431Z,5.10
2023-02-01T02:47:33.939Z,5.27
2023-02-01T02:50:27.646Z,5.00
2023-02-01T02:53:18.204Z,6.23
2023-02-01T02:55:45.871Z,5.57
2023-02-01T02:58:32.259Z,5.07
2023-02-01T03:01:17.508Z,5.50
2023-02-01T03:04:03.021Z,5.30
2023-02-01T03:06:33.296Z,5.90
2023-02-01T03:09:05.221Z,5.47
2023-02-01T03:11:47.620Z,5.57
2023-02-01T03:14:16.521Z,4.60
2023-02-01T03:16:48.978Z,5.40
2023-02-01T03:19:22.426Z,5.10
2023-02-01T03:24:33.229Z,4.50
2023-02-01T03:27:05.812Z,5.20
2023-02-01T03:29:41.423Z,4.73
2023-02-01T03:32:09.623Z,5.07
2023-02-01T03:34:36.914Z,4.80
2023-02-01T03:37:07.258Z,4.97
2023-02-01T03:39:37.076Z,4.67
2023-02-01T03:42:08.577Z,4.40
2023-02-01T03:44:39.251Z,5.23
2023-02-01T03:47:10.525Z,5.40
2023-02-01T03:49:41.366Z,5.77
2023-02-01T03:52:13.988Z,5.20
2023-02-01T03:54:44.285Z,4.13
2023-02-01T03:57:14.677Z,5.07
2023-02-01T03:59:41.646Z,4.63
2023-02-01T04:02:09.015Z,5.07
2023-02-01T04:04:35.884Z,3.93
2023-02-01T04:07:02.546Z,4.27
2023-02-01T04:09:30.213Z,3.70
2023-02-01T04:11:56.561Z,4.23
2023-02-01T04:14:22.938Z,4.73
2023-02-01T04:16:49.422Z,4.20
2023-02-01T04:19:15.833Z,4.03
2023-02-01T04:21:42.194Z,4.50
2023-02-01T04:24:09.101Z,4.60
2023-02-01T04:26:36.108Z,4.90
2023-02-01T04:29:02.562Z,4.50
2023-02-01T04:31:29.096Z,4.47
2023-02-01T04:33:57.687Z,5.20
2023-02-01T04:36:24.434Z,4.80
2023-02-01T04:38:50.986Z,4.87
2023-02-01T04:41:19.045Z,4.80
2023-02-01T04:43:46.220Z,4.97
2023-02-01T04:46:12.622Z,4.80
2023-02-01T04:48:39.075Z,4.90
2023-02-01T04:51:05.809Z,4.53
2023-02-01T04:53:32.286Z,5.40
2023-02-01T04:55:58.642Z,5.10
2023-02-01T04:58:25.255Z,5.60
2023-02-01T05:00:52.333Z,5.13
2023-02-01T05:03:18.848Z,7.23
2023-02-01T05:05:45.396Z,4.93
2023-02-01T05:08:11.750Z,5.70
2023-02-01T05:10:38.094Z,5.40
2023-02-01T05:13:30.845Z,5.10
2023-02-01T05:15:58.021Z,5.50
2023-02-01T05:18:24.516Z,5.83
2023-02-01T05:20:50.896Z,5.20
2023-02-01T05:23:17.243Z,5.00
2023-02-01T05:25:43.596Z,5.23
2023-02-01T05:28:09.958Z,5.20
2023-02-01T05:30:36.353Z,5.30
2023-02-01T05:33:04.079Z,5.30
2023-02-01T05:35:30.909Z,5.00
2023-02-01T05:37:57.378Z,3.43
2023-02-01T05:40:24.101Z,3.63
2023-02-01T05:42:50.829Z,4.97
2023-02-01T05:45:17.433Z,5.80
2023-02-01T05:47:43.763Z,5.27
2023-02-01T05:50:11.187Z,5.30
2023-02-01T05:52:37.551Z,5.40
2023-02-01T05:55:04.637Z,5.37
2023-02-01T05:57:31.116Z,5.47
2023-02-01T05:59:58.626Z,5.13
2023-02-01T06:02:26.037Z,5.30
2023-02-01T06:04:52.569Z,4.77
2023-02-01T06:07:19.617Z,5.50
2023-02-01T06:09:45.992Z,5.23
2023-02-01T06:12:12.525Z,4.37
2023-02-01T06:14:38.876Z,5.47
2023-02-01T06:17:06.534Z,4.60
2023-02-01T06:19:32.971Z,6.03
2023-02-01T06:21:59.358Z,5.77
2023-02-01T06:24:26.402Z,4.43
2023-02-01T06:26:52.848Z,6.03
2023-02-01T06:29:19.332Z,6.20
2023-02-01T06:31:45.707Z,5.00
2023-02-01T06:34:12.077Z,5.17
2023-02-01T06:36:38.758Z,5.37
2023-02-01T06:39:05.133Z,5.43
2023-02-01T06:41:34.840Z,4.60
2023-02-01T06:44:01.261Z,5.20
2023-02-01T06:46:27.777Z,4.77
2023-02-01T06:48:54.565Z,5.40
2023-02-01T06:51:22.292Z,5.37
2023-02-01T06:53:48.727Z,4.57
2023-02-01T06:56:15.093Z,5.00
2023-02-01T06:58:42.152Z,5.30
2023-02-01T07:01:10.200Z,4.70
2023-02-01T07:03:36.937Z,4.20
2023-02-01T07:06:04.627Z,4.87
2023-02-01T07:08:32.449Z,4.80
2023-02-01T07:11:02.430Z,4.83
2023-02-01T07:13:28.777Z,4.50
2023-02-01T07:15:58.763Z,4.77
2023-02-01T07:18:25.139Z,4.60
2023-02-01T07:20:51.932Z,3.80
2023-02-01T07:23:18.498Z,4.47
2023-02-01T07:25:44.875Z,4.27
2023-02-01T07:28:11.248Z,4.17
2023-02-01T07:30:37.639Z,4.50
2023-02-01T07:33:04.723Z,3.93
2023-02-01T07:35:31.145Z,3.87
2023-02-01T07:37:58.675Z,3.67
2023-02-01T07:40:28.838Z,3.60
2023-02-01T07:42:55.310Z,3.30
2023-02-01T07:45:22.029Z,3.90
2023-02-01T07:47:48.807Z,3.70
2023-02-01T07:50:16.461Z,4.20
2023-02-01T07:52:42.842Z,4.10
2023-02-01T07:55:10.164Z,3.20
2023-02-01T07:57:36.530Z,3.67
2023-02-01T08:00:25.383Z,3.13
2023-02-01T08:02:52.234Z,3.40
2023-02-01T08:05:19.617Z,3.20
2023-02-01T08:07:49.390Z,3.20
2023-02-01T08:10:16.737Z,3.10
2023-02-01T08:12:43.965Z,3.00
2023-02-01T08:15:11.199Z,3.03
2023-02-01T08:17:37.531Z,2.93
2023-02-01T08:20:04.625Z,2.63
2023-02-01T08:22:33.369Z,3.17
2023-02-01T08:25:01.490Z,2.70
2023-02-01T08:27:27.977Z,3.03
2023-02-01T08:29:54.734Z,2.60
2023-02-01T08:32:21.101Z,2.70
2023-02-01T08:34:47.462Z,2.93
2023-02-01T08:37:13.805Z,2.97
2023-02-01T08:39:43.888Z,3.10
2023-02-01T08:42:29.064Z,3.30
2023-02-01T08:44:55.438Z,2.80
2023-02-01T08:47:21.779Z,2.83
2023-02-01T08:49:48.146Z,3.03
2023-02-01T08:52:16.073Z,2.90
2023-02-01T08:54:43.861Z,2.60
2023-02-01T08:57:10.381Z,2.67
2023-02-01T08:59:37.045Z,3.33
2023-02-01T09:02:03.459Z,3.20
2023-02-01T09:04:30.065Z,3.27
2023-02-01T09:06:57.445Z,2.50
2023-02-01T09:09:24.166Z,3.27
2023-02-01T09:11:51.184Z,3.37
2023-02-01T09:14:17.653Z,2.90
2023-02-01T09:16:44.046Z,3.20
2023-02-01T09:19:27.051Z,2.80
2023-02-01T09:21:53.864Z,3.27
2023-02-01T09:24:20.234Z,3.27
2023-02-01T09:26:46.691Z,2.93
2023-02-01T09:29:13.746Z,2.90
2023-02-01T09:31:44.190Z,2.90
2023-02-01T09:34:13.176Z,3.07
2023-02-01T09:36:39.601Z,3.10
2023-02-01T09:39:06.038Z,2.93
2023-02-01T09:41:47.163Z,3.13
2023-02-01T09:44:27.690Z,3.00
2023-02-01T09:46:57.236Z,3.23
2023-02-01T09:49:29.238Z,2.63
2023-02-01T09:51:57.557Z,2.60
2023-02-01T09:54:26.448Z,2.57
2023-02-01T09:56:55.564Z,3.33
2023-02-01T09:59:38.795Z,2.80
2023-02-01T10:02:13.272Z,2.97
2023-02-01T10:04:39.799Z,2.87
2023-02-01T10:07:23.440Z,2.77
2023-02-01T10:10:02.203Z,3.30
2023-02-01T10:13:13.732Z,2.77
2023-02-01T10:15:57.893Z,2.93
2023-02-01T10:18:50.135Z,2.73
2023-02-01T10:21:28.093Z,3.03
2023-02-01T10:24:17.626Z,3.40
2023-02-01T10:26:46.969Z,3.00
2023-02-01T10:29:19.209Z,2.50
2023-02-01T10:31:46.720Z,3.27
2023-02-01T10:34:20.614Z,3.07
2023-02-01T10:36:55.258Z,2.80
2023-02-01T10:39:23.061Z,3.20
2023-02-01T10:41:49.847Z,3.10
2023-02-01T10:44:19.489Z,3.13
2023-02-01T10:46:46.745Z,2.90
2023-02-01T10:49:18.756Z,3.40
2023-02-01T10:51:51.807Z,2.40
2023-02-01T10:54:20.809Z,3.10
2023-02-01T10:56:48.062Z,3.70
2023-02-01T10:59:17.995Z,3.50
2023-02-01T11:01:48.024Z,3.63
2023-02-01T11:04:16.998Z,3.37
2023-02-01T11:06:45.631Z,4.00
2023-02-01T11:09:20.694Z,3.30
2023-02-01T11:11:55.769Z,3.10
2023-02-01T11:14:34.431Z,3.30
2023-02-01T11:17:17.809Z,3.90
2023-02-01T11:19:45.344Z,3.23
2023-02-01T11:22:14.244Z,3.47
2023-02-01T11:24:45.082Z,3.00
2023-02-01T11:27:26.556Z,3.23
2023-02-01T11:29:57.912Z,3.30
2023-02-01T11:32:25.726Z,3.13
2023-02-01T11:34:56.183Z,3.50
2023-02-01T11:37:25.369Z,3.90
2023-02-01T11:39:56.542Z,3.27
2023-02-01T11:42:23.001Z,3.97
2023-02-01T11:44:49.425Z,3.67
2023-02-01T11:47:25.621Z,3.57
2023-02-01T11:49:54.203Z,3.60
2023-02-01T11:52:42.222Z,3.63
2023-02-01T11:55:19.627Z,3.63
2023-02-01T11:58:01.501Z,3.73
2023-02-01T12:00:54.108Z,4.23
2023-02-01T12:04:08.827Z,3.57
2023-02-01T12:06:47.738Z,4.00
2023-02-01T12:09:28.638Z,3.40
2023-02-01T12:12:05.421Z,3.97
2023-02-01T12:14:57.180Z,3.50
2023-02-01T12:18:00.425Z,3.83
2023-02-01T12:20:57.178Z,3.50
2023-02-01T12:23:38.489Z,3.43
2023-02-01T12:26:23.105Z,3.10
2023-02-01T12:29:08.475Z,3.80
2023-02-01T12:31:58.096Z,3.67
2023-02-01T12:34:39.754Z,4.23
2023-02-01T12:37:16.069Z,4.20
2023-02-01T12:39:48.907Z,3.70
2023-02-01T12:42:19.051Z,3.30
2023-02-01T12:44:51.361Z,3.70
2023-02-01T12:47:23.567Z,3.87
2023-02-01T12:49:56.514Z,3.33
2023-02-01T12:52:37.683Z,2.70
2023-02-01T12:55:14.657Z,3.03
2023-02-01T12:57:45.132Z,3.10
2023-02-01T13:00:45.934Z,3.10
2023-02-01T13:03:21.507Z,2.90
2023-02-01T13:05:56.554Z,3.43
2023-02-01T13:08:29.205Z,2.90
2023-02-01T13:11:01.097Z,3.40
2023-02-01T13:13:40.059Z,3.30
2023-02-01T13:16:18.056Z,3.50
2023-02-01T13:18:50.583Z,3.57
2023-02-01T13:21:22.179Z,3.90
2023-02-01T13:23:50.562Z,3.60
2023-02-01T13:26:17.025Z,3.70
2023-02-01T13:28:47.399Z,3.90
2023-02-01T13:31:49.012Z,3.70
2023-02-01T13:34:43.478Z,3.33
2023-02-01T13:37:26.747Z,3.23
2023-02-01T13:40:11.059Z,3.97
2023-02-01T13:42:48.041Z,3.23
2023-02-01T13:45:17.367Z,2.97
2023-02-01T13:47:47.836Z,3.20
2023-02-01T13:50:22.316Z,3.53
2023-02-01T13:52:53.954Z,3.27
2023-02-01T13:55:36.806Z,3.40
2023-02-01T13:58:19.107Z,3.43
2023-02-01T14:00:46.356Z,3.17
2023-02-01T14:03:21.066Z,2.93
2023-02-01T14:06:00.843Z,3.10
2023-02-01T14:08:45.784Z,3.20
2023-02-01T14:11:41.080Z,2.90
2023-02-01T14:14:46.419Z,3.10
2023-02-01T14:17:39.839Z,3.13
2023-02-01T14:20:53.634Z,3.07
2023-02-01T14:26:26.550Z,2.77
2023-02-01T14:29:00.221Z,2.90
2023-02-01T14:31:38.373Z,3.10
2023-02-01T14:34:13.873Z,3.50
2023-02-01T14:36:45.187Z,2.47
2023-02-01T14:39:29.010Z,2.73
2023-02-01T14:41:59.925Z,3.10
2023-02-01T14:44:35.474Z,3.27
2023-02-01T14:47:31.031Z,2.90
2023-02-01T14:50:09.618Z,2.60
2023-02-01T14:52:42.499Z,2.93
2023-02-01T14:55:16.704Z,2.90
2023-02-01T14:57:46.614Z,2.87
2023-02-01T15:03:26.067Z,3.33
2023-02-01T15:05:57.454Z,2.20
2023-02-01T15:08:28.824Z,2.80
2023-02-01T15:10:57.322Z,2.47
2023-02-01T15:13:25.966Z,2.80
2023-02-01T15:16:10.715Z,2.70
2023-02-01T15:18:37.594Z,2.50
2023-02-01T15:21:26.491Z,2.80
2023-02-01T15:24:10.714Z,2.90
2023-02-01T15:26:37.131Z,3.07
2023-02-01T15:29:03.623Z,2.53
2023-02-01T15:31:36.280Z,2.77
2023-02-01T15:34:03.631Z,2.90
2023-02-01T15:36:32.060Z,3.10
2023-02-01T15:39:20.168Z,3.87
2023-02-01T15:41:49.625Z,3.80
2023-02-01T15:44:21.383Z,3.40
2023-02-01T15:46:50.632Z,3.00
2023-02-01T15:49:23.648Z,2.93
2023-02-01T15:51:50.960Z,3.50
2023-02-01T15:54:20.593Z,3.60
2023-02-01T15:56:53.014Z,3.33
2023-02-01T15:59:21.742Z,3.20
2023-02-01T16:01:50.211Z,3.60
2023-02-01T16:04:18.968Z,3.37
2023-02-01T16:06:50.982Z,3.57
2023-02-01T16:09:19.354Z,2.97
2023-02-01T16:11:54.365Z,2.90
2023-02-01T16:14:21.325Z,3.00
2023-02-01T16:16:48.598Z,2.60
2023-02-01T16:19:14.994Z,2.90
2023-02-01T16:21:41.359Z,3.17
2023-02-01T16:24:08.067Z,2.77
2023-02-01T16:26:35.047Z,5.67
2023-02-01T16:29:06.256Z,2.80
2023-02-01T16:31:35.445Z,2.63
2023-02-01T16:34:03.248Z,3.20
2023-02-01T16:36:29.725Z,3.20
2023-02-01T16:38:56.097Z,3.47
2023-02-01T16:41:23.997Z,3.10
2023-02-01T16:43:51.765Z,2.87
2023-02-01T16:46:21.422Z,3.50
2023-02-01T16:48:53.868Z,2.70
2023-02-01T16:51:21.681Z,3.23
2023-02-01T16:53:54.599Z,2.70
2023-02-01T16:56:23.632Z,3.10
2023-02-01T16:58:50.207Z,2.80
2023-02-01T17:01:18.839Z,3.20
2023-02-01T17:03:46.241Z,2.53
2023-02-01T17:06:16.523Z,3.17
2023-02-01T17:08:45.684Z,3.13
2023-02-01T17:11:13.333Z,3.07
2023-02-01T17:13:41.530Z,3.33
2023-02-01T17:16:21.209Z,3.27
2023-02-01T17:18:54.509Z,2.80
2023-02-01T17:21:21.086Z,2.83
2023-02-01T17:23:48.376Z,3.30
2023-02-01T17:26:14.740Z,2.77
2023-02-01T17:28:41.147Z,2.40
2023-02-01T17:31:11.081Z,3.17
2023-02-01T17:33:37.538Z,3.10
2023-02-01T17:36:06.154Z,3.20
2023-02-01T17:38:34.000Z,2.30
2023-02-01T17:41:01.115Z,2.63
2023-02-01T17:43:27.651Z,2.63
2023-02-01T17:45:58.414Z,2.57
2023-02-01T17:48:25.271Z,3.00
2023-02-01T17:50:57.936Z,3.00
2023-02-01T17:53:25.300Z,2.30
2023-02-01T17:55:52.156Z,2.70
2023-02-01T17:58:20.350Z,2.90
2023-02-01T18:00:48.177Z,2.80
2023-02-01T18:03:23.197Z,2.53
2023-02-01T18:05:52.714Z,3.10
2023-02-01T18:08:21.359Z,2.50
2023-02-01T18:10:49.157Z,2.63
2023-02-01T18:13:15.735Z,2.77
2023-02-01T18:15:43.148Z,2.33
2023-02-01T18:18:09.651Z,2.77
2023-02-01T18:20:36.097Z,2.80
2023-02-01T18:23:02.612Z,3.30
2023-02-01T18:25:36.295Z,2.83
2023-02-01T18:28:03.581Z,3.10
2023-02-01T18:30:32.219Z,2.40
2023-02-01T18:32:59.688Z,2.53
2023-02-01T18:35:28.362Z,2.50
2023-02-01T18:37:55.728Z,3.07
2023-02-01T18:40:26.415Z,2.60
2023-02-01T18:42:53.100Z,2.97
2023-02-01T18:45:24.558Z,3.03
2023-02-01T18:47:51.289Z,2.87
2023-02-01T18:50:18.936Z,3.20
2023-02-01T18:52:45.766Z,3.27
2023-02-01T18:55:12.479Z,2.27
2023-02-01T18:57:39.425Z,2.63
2023-02-01T19:00:08.248Z,2.50
2023-02-01T19:02:34.722Z,3.00
2023-02-01T19:05:02.311Z,2.47
2023-02-01T19:07:29.307Z,2.47
2023-02-01T19:09:55.700Z,2.80
2023-02-01T19:12:22.061Z,3.03
2023-02-01T19:14:48.478Z,2.67
2023-02-01T19:17:14.917Z,2.40
2023-02-01T19:19:43.385Z,2.60
2023-02-01T19:22:09.786Z,2.60
2023-02-01T19:24:36.843Z,2.70
2023-02-01T19:27:03.300Z,3.37
2023-02-01T19:29:30.468Z,2.67
2023-02-01T19:31:57.164Z,2.40
2023-02-01T19:34:23.647Z,3.47
2023-02-01T19:36:50.236Z,3.00
2023-02-01T19:39:16.623Z,2.90
2023-02-01T19:41:43.660Z,3.13
2023-02-01T19:44:10.009Z,2.50
2023-02-01T19:46:36.432Z,2.70
2023-02-01T19:49:02.816Z,2.67
2023-02-01T19:51:29.225Z,3.17
2023-02-01T19:53:56.207Z,2.80
2023-02-01T19:56:22.577Z,2.90
2023-02-01T19:58:51.333Z,2.60
2023-02-01T20:01:18.033Z,2.73
2023-02-01T20:03:44.384Z,3.57
2023-02-01T20:06:11.844Z,2.63
2023-02-01T20:08:38.270Z,2.57
2023-02-01T20:11:05.707Z,2.60
2023-02-01T20:13:33.874Z,2.70
2023-02-01T20:16:01.446Z,2.60
2023-02-01T20:18:27.967Z,2.83
2023-02-01T20:20:55.352Z,2.47
2023-02-01T20:23:21.959Z,2.63
2023-02-01T20:25:49.297Z,3.20
2023-02-01T20:28:15.800Z,2.70
2023-02-01T20:30:43.651Z,3.00
2023-02-01T20:33:10.768Z,2.47
2023-02-01T20:35:37.157Z,2.60
2023-02-01T20:38:03.887Z,2.33
2023-02-01T20:40:30.592Z,2.77
2023-02-01T20:42:58.030Z,2.67
2023-02-01T20:45:25.947Z,3.77
2023-02-01T20:47:53.424Z,2.40
2023-02-01T20:50:20.585Z,3.00
2023-02-01T20:52:47.079Z,2.60
2023-02-01T20:55:13.470Z,3.07
2023-02-01T20:57:39.887Z,3.03
2023-02-01T21:00:09.391Z,2.30
2023-02-01T21:02:35.973Z,3.03
2023-02-01T21:05:02.357Z,3.07
2023-02-01T21:07:29.415Z,2.90
2023-02-01T21:09:56.205Z,2.27
2023-02-01T21:12:23.484Z,2.83
2023-02-01T21:14:49.864Z,2.50
2023-02-01T21:17:16.238Z,2.30
2023-02-01T21:19:42.733Z,2.67
2023-02-01T21:22:09.891Z,2.23
2023-02-01T21:24:36.961Z,3.00
2023-02-01T21:27:03.518Z,2.37
2023-02-01T21:29:29.951Z,2.70
2023-02-01T21:31:56.314Z,2.50
2023-02-01T21:34:22.674Z,2.80
2023-02-01T21:36:49.034Z,2.23
2023-02-01T21:39:16.926Z,2.17
2023-02-01T21:42:02.767Z,3.00
2023-02-01T21:44:29.300Z,3.07
2023-02-01T21:46:55.872Z,2.60
2023-02-01T21:49:24.168Z,2.53
2023-02-01T21:51:50.802Z,2.37
2023-02-01T21:54:17.293Z,2.37
2023-02-01T21:56:44.802Z,2.60
2023-02-01T21:59:11.708Z,2.87
2023-02-01T22:01:39.221Z,2.53
2023-02-01T22:04:06.299Z,2.90
2023-02-01T22:06:34.813Z,2.50
2023-02-01T22:09:01.709Z,2.60
2023-02-01T22:11:28.567Z,2.90
2023-02-01T22:13:55.581Z,2.30
2023-02-01T22:16:22.673Z,2.80
2023-02-01T22:18:50.148Z,2.00
2023-02-01T22:21:16.672Z,3.33
2023-02-01T22:23:43.539Z,2.40
2023-02-01T22:26:15.406Z,2.47
2023-02-01T22:28:41.828Z,2.27
2023-02-01T22:31:10.066Z,2.83
2023-02-01T22:33:36.886Z,2.60
2023-02-01T22:36:04.747Z,2.40
2023-02-01T22:38:31.832Z,2.97
2023-02-01T22:41:00.012Z,2.63
2023-02-01T22:43:27.386Z,2.23
2023-02-01T22:45:54.379Z,2.23
2023-02-01T22:48:21.432Z,2.67
2023-02-01T22:50:47.793Z,2.50
2023-02-01T22:53:14.159Z,2.80
2023-02-01T22:55:41.588Z,2.77
2023-02-01T22:58:07.969Z,2.63
2023-02-01T23:00:34.621Z,2.67
2023-02-01T23:03:01.032Z,2.37
2023-02-01T23:05:28.112Z,2.70
2023-02-01T23:07:54.530Z,2.50
2023-02-01T23:10:21.212Z,2.50
2023-02-01T23:12:48.233Z,2.50
2023-02-01T23:15:15.489Z,2.37
2023-02-01T23:17:43.294Z,2.87
2023-02-01T23:20:13.983Z,3.00
2023-02-01T23:22:41.286Z,3.37
2023-02-01T23:25:08.413Z,2.90
2023-02-01T23:27:34.889Z,2.80
2023-02-01T23:30:01.327Z,2.80
2023-02-01T23:32:27.676Z,2.40
2023-02-01T23:34:54.100Z,2.80
2023-02-01T23:37:20.476Z,3.33
2023-02-01T23:39:47.511Z,2.67
2023-02-01T23:42:13.874Z,2.33
2023-02-01T23:44:40.222Z,2.87
2023-02-01T23:47:06.588Z,2.40
2023-02-01T23:49:32.958Z,3.00
2023-02-01T23:51:59.291Z,2.80
2023-02-01T23:54:25.641Z,2.50
2023-02-01T23:56:52.648Z,2.50
2023-02-01T23:59:21.223Z,2.57
